sensor_id;sensor_type;location;lat;lon;timestamp;P1;durP1;ratioP1;P2;durP2;ratioP2
76745;SDS011;65671;49.976;20.038;2023-08-30T00:00:14;25.67;;;15.15;;
76745;SDS011;65671;49.976;20.038;2023-08-30T00:02:42;25.70;;;14.32;;
76745;SDS011;65671;49.976;20.038;2023-08-30T00:05:10;23.60;;;15.60;;
76745;SDS011;65671;49.976;20.038;2023-08-30T00:07:36;24.23;;;13.95;;
76745;SDS011;65671;49.976;20.038;2023-08-30T00:10:02;27.77;;;14.75;;
76745;SDS011;65671;49.976;20.038;2023-08-30T00:12:28;29.15;;;15.77;;
76745;SDS011;65671;49.976;20.038;2023-08-30T00:14:54;26.60;;;15.13;;
76745;SDS011;65671;49.976;20.038;2023-08-30T00:17:20;26.02;;;14.48;;
76745;SDS011;65671;49.976;20.038;2023-08-30T00:19:46;24.08;;;14.88;;
76745;SDS011;65671;49.976;20.038;2023-08-30T00:22:13;24.05;;;13.43;;
76745;SDS011;65671;49.976;20.038;2023-08-30T00:24:39;28.20;;;14.52;;
76745;SDS011;65671;49.976;20.038;2023-08-30T00:27:04;22.00;;;13.65;;
76745;SDS011;65671;49.976;20.038;2023-08-30T00:29:30;24.90;;;13.05;;
76745;SDS011;65671;49.976;20.038;2023-08-30T00:31:55;21.67;;;12.50;;
76745;SDS011;65671;49.976;20.038;2023-08-30T00:34:21;20.08;;;13.15;;
76745;SDS011;65671;49.976;20.038;2023-08-30T00:36:46;22.83;;;13.13;;
76745;SDS011;65671;49.976;20.038;2023-08-30T00:39:12;21.05;;;12.95;;
76745;SDS011;65671;49.976;20.038;2023-08-30T00:41:38;23.15;;;13.65;;
76745;SDS011;65671;49.976;20.038;2023-08-30T00:44:04;18.45;;;11.90;;
76745;SDS011;65671;49.976;20.038;2023-08-30T00:46:29;18.63;;;11.18;;
76745;SDS011;65671;49.976;20.038;2023-08-30T00:48:57;16.73;;;10.73;;
76745;SDS011;65671;49.976;20.038;2023-08-30T00:51:23;15.27;;;10.30;;
76745;SDS011;65671;49.976;20.038;2023-08-30T00:53:48;16.75;;;10.82;;
76745;SDS011;65671;49.976;20.038;2023-08-30T00:56:14;19.92;;;10.45;;
76745;SDS011;65671;49.976;20.038;2023-08-30T00:58:40;14.68;;;9.50;;
76745;SDS011;65671;49.976;20.038;2023-08-30T01:01:06;19.52;;;10.63;;
76745;SDS011;65671;49.976;20.038;2023-08-30T01:03:33;17.23;;;9.43;;
76745;SDS011;65671;49.976;20.038;2023-08-30T01:05:59;13.18;;;8.70;;
76745;SDS011;65671;49.976;20.038;2023-08-30T01:08:25;14.88;;;8.73;;
76745;SDS011;65671;49.976;20.038;2023-08-30T01:10:59;16.38;;;9.25;;
76745;SDS011;65671;49.976;20.038;2023-08-30T01:13:47;17.05;;;9.10;;
76745;SDS011;65671;49.976;20.038;2023-08-30T01:16:18;14.02;;;9.68;;
76745;SDS011;65671;49.976;20.038;2023-08-30T01:18:46;16.00;;;9.68;;
76745;SDS011;65671;49.976;20.038;2023-08-30T01:21:18;14.52;;;9.50;;
76745;SDS011;65671;49.976;20.038;2023-08-30T01:23:56;15.73;;;9.30;;
76745;SDS011;65671;49.976;20.038;2023-08-30T01:29:28;12.43;;;8.88;;
76745;SDS011;65671;49.976;20.038;2023-08-30T01:31:55;13.02;;;8.57;;
76745;SDS011;65671;49.976;20.038;2023-08-30T01:34:21;14.75;;;9.20;;
76745;SDS011;65671;49.976;20.038;2023-08-30T01:36:47;14.10;;;8.85;;
76745;SDS011;65671;49.976;20.038;2023-08-30T01:39:14;12.48;;;7.75;;
76745;SDS011;65671;49.976;20.038;2023-08-30T01:41:41;12.48;;;9.10;;
76745;SDS011;65671;49.976;20.038;2023-08-30T01:44:07;12.32;;;8.68;;
76745;SDS011;65671;49.976;20.038;2023-08-30T01:46:34;15.10;;;7.93;;
76745;SDS011;65671;49.976;20.038;2023-08-30T01:49:03;11.20;;;8.05;;
76745;SDS011;65671;49.976;20.038;2023-08-30T01:51:31;12.30;;;7.70;;
76745;SDS011;65671;49.976;20.038;2023-08-30T01:53:58;13.63;;;8.85;;
76745;SDS011;65671;49.976;20.038;2023-08-30T01:56:24;11.80;;;7.10;;
76745;SDS011;65671;49.976;20.038;2023-08-30T01:58:49;14.95;;;8.52;;
76745;SDS011;65671;49.976;20.038;2023-08-30T02:01:15;13.50;;;8.68;;
76745;SDS011;65671;49.976;20.038;2023-08-30T02:03:43;11.75;;;8.13;;
76745;SDS011;65671;49.976;20.038;2023-08-30T02:06:21;14.82;;;8.23;;
76745;SDS011;65671;49.976;20.038;2023-08-30T02:08:53;12.80;;;8.18;;
76745;SDS011;65671;49.976;20.038;2023-08-30T02:11:26;14.65;;;8.57;;
76745;SDS011;65671;49.976;20.038;2023-08-30T02:13:53;14.95;;;8.63;;
76745;SDS011;65671;49.976;20.038;2023-08-30T02:16:22;13.13;;;8.20;;
76745;SDS011;65671;49.976;20.038;2023-08-30T02:18:48;15.55;;;8.77;;
76745;SDS011;65671;49.976;20.038;2023-08-30T02:21:15;14.35;;;8.10;;
76745;SDS011;65671;49.976;20.038;2023-08-30T02:23:40;11.98;;;7.65;;
76745;SDS011;65671;49.976;20.038;2023-08-30T02:26:05;14.23;;;8.20;;
76745;SDS011;65671;49.976;20.038;2023-08-30T02:28:31;13.27;;;9.27;;
76745;SDS011;65671;49.976;20.038;2023-08-30T02:30:56;13.00;;;8.77;;
76745;SDS011;65671;49.976;20.038;2023-08-30T02:33:22;14.52;;;8.25;;
76745;SDS011;65671;49.976;20.038;2023-08-30T02:35:47;12.95;;;8.80;;
76745;SDS011;65671;49.976;20.038;2023-08-30T02:38:13;12.60;;;8.70;;
76745;SDS011;65671;49.976;20.038;2023-08-30T02:40:38;11.20;;;8.02;;
76745;SDS011;65671;49.976;20.038;2023-08-30T02:43:04;10.82;;;7.97;;
76745;SDS011;65671;49.976;20.038;2023-08-30T02:45:29;14.23;;;8.45;;
76745;SDS011;65671;49.976;20.038;2023-08-30T02:47:56;11.57;;;7.75;;
76745;SDS011;65671;49.976;20.038;2023-08-30T02:50:22;11.25;;;8.00;;
76745;SDS011;65671;49.976;20.038;2023-08-30T02:52:48;12.23;;;7.90;;
76745;SDS011;65671;49.976;20.038;2023-08-30T02:55:13;11.73;;;8.35;;
76745;SDS011;65671;49.976;20.038;2023-08-30T02:57:39;13.32;;;8.48;;
76745;SDS011;65671;49.976;20.038;2023-08-30T03:00:04;11.82;;;8.55;;
76745;SDS011;65671;49.976;20.038;2023-08-30T03:02:31;11.45;;;7.45;;
76745;SDS011;65671;49.976;20.038;2023-08-30T03:04:58;13.85;;;8.93;;
76745;SDS011;65671;49.976;20.038;2023-08-30T03:07:24;12.05;;;7.70;;
76745;SDS011;65671;49.976;20.038;2023-08-30T03:09:53;10.32;;;7.25;;
76745;SDS011;65671;49.976;20.038;2023-08-30T03:12:18;10.25;;;7.00;;
76745;SDS011;65671;49.976;20.038;2023-08-30T03:14:44;14.05;;;8.35;;
76745;SDS011;65671;49.976;20.038;2023-08-30T03:17:09;13.70;;;8.13;;
76745;SDS011;65671;49.976;20.038;2023-08-30T03:19:35;13.98;;;8.15;;
76745;SDS011;65671;49.976;20.038;2023-08-30T03:22:00;14.68;;;8.48;;
76745;SDS011;65671;49.976;20.038;2023-08-30T03:24:25;12.88;;;8.75;;
76745;SDS011;65671;49.976;20.038;2023-08-30T03:26:51;14.18;;;8.57;;
76745;SDS011;65671;49.976;20.038;2023-08-30T03:29:16;18.45;;;9.38;;
76745;SDS011;65671;49.976;20.038;2023-08-30T03:31:42;12.90;;;8.07;;
76745;SDS011;65671;49.976;20.038;2023-08-30T03:34:08;12.07;;;8.15;;
76745;SDS011;65671;49.976;20.038;2023-08-30T03:36:34;13.20;;;8.48;;
76745;SDS011;65671;49.976;20.038;2023-08-30T03:39:00;11.93;;;8.80;;
76745;SDS011;65671;49.976;20.038;2023-08-30T03:41:25;12.45;;;8.43;;
76745;SDS011;65671;49.976;20.038;2023-08-30T03:43:51;13.43;;;8.82;;
76745;SDS011;65671;49.976;20.038;2023-08-30T03:46:16;11.95;;;7.47;;
76745;SDS011;65671;49.976;20.038;2023-08-30T03:48:42;12.25;;;7.78;;
76745;SDS011;65671;49.976;20.038;2023-08-30T03:51:07;11.65;;;7.95;;
76745;SDS011;65671;49.976;20.038;2023-08-30T03:53:33;11.27;;;8.40;;
76745;SDS011;65671;49.976;20.038;2023-08-30T03:55:58;13.65;;;8.15;;
76745;SDS011;65671;49.976;20.038;2023-08-30T03:58:24;12.57;;;8.20;;
76745;SDS011;65671;49.976;20.038;2023-08-30T04:00:50;13.00;;;8.82;;
76745;SDS011;65671;49.976;20.038;2023-08-30T04:03:16;10.70;;;7.93;;
76745;SDS011;65671;49.976;20.038;2023-08-30T04:05:42;11.93;;;7.82;;
76745;SDS011;65671;49.976;20.038;2023-08-30T04:08:08;13.30;;;8.48;;
76745;SDS011;65671;49.976;20.038;2023-08-30T04:10:37;12.05;;;8.10;;
76745;SDS011;65671;49.976;20.038;2023-08-30T04:13:04;11.98;;;7.93;;
76745;SDS011;65671;49.976;20.038;2023-08-30T04:15:37;16.20;;;8.73;;
76745;SDS011;65671;49.976;20.038;2023-08-30T04:18:04;16.17;;;9.13;;
76745;SDS011;65671;49.976;20.038;2023-08-30T04:20:31;12.35;;;7.97;;
76745;SDS011;65671;49.976;20.038;2023-08-30T04:22:57;14.75;;;8.98;;
76745;SDS011;65671;49.976;20.038;2023-08-30T04:25:23;11.70;;;7.93;;
76745;SDS011;65671;49.976;20.038;2023-08-30T04:27:49;12.30;;;8.85;;
76745;SDS011;65671;49.976;20.038;2023-08-30T04:30:15;12.15;;;8.27;;
76745;SDS011;65671;49.976;20.038;2023-08-30T04:32:41;16.15;;;9.27;;
76745;SDS011;65671;49.976;20.038;2023-08-30T04:35:07;12.02;;;7.78;;
76745;SDS011;65671;49.976;20.038;2023-08-30T04:37:32;15.23;;;8.50;;
76745;SDS011;65671;49.976;20.038;2023-08-30T04:39:58;13.85;;;9.25;;
76745;SDS011;65671;49.976;20.038;2023-08-30T04:42:23;14.20;;;8.32;;
76745;SDS011;65671;49.976;20.038;2023-08-30T04:48:06;11.43;;;8.32;;
76745;SDS011;65671;49.976;20.038;2023-08-30T04:50:31;12.95;;;9.18;;
76745;SDS011;65671;49.976;20.038;2023-08-30T04:52:57;18.17;;;9.18;;
76745;SDS011;65671;49.976;20.038;2023-08-30T04:55:28;15.20;;;10.05;;
76745;SDS011;65671;49.976;20.038;2023-08-30T04:57:54;13.43;;;8.88;;
76745;SDS011;65671;49.976;20.038;2023-08-30T05:00:19;19.13;;;9.93;;
76745;SDS011;65671;49.976;20.038;2023-08-30T05:02:45;17.02;;;10.02;;
76745;SDS011;65671;49.976;20.038;2023-08-30T05:05:12;15.10;;;10.30;;
76745;SDS011;65671;49.976;20.038;2023-08-30T05:07:37;15.93;;;10.15;;
76745;SDS011;65671;49.976;20.038;2023-08-30T05:10:03;16.55;;;10.15;;
76745;SDS011;65671;49.976;20.038;2023-08-30T05:12:29;13.32;;;8.80;;
76745;SDS011;65671;49.976;20.038;2023-08-30T05:14:55;16.70;;;10.48;;
76745;SDS011;65671;49.976;20.038;2023-08-30T05:17:20;16.38;;;9.48;;
76745;SDS011;65671;49.976;20.038;2023-08-30T05:19:46;16.33;;;10.60;;
76745;SDS011;65671;49.976;20.038;2023-08-30T05:22:11;16.27;;;9.20;;
76745;SDS011;65671;49.976;20.038;2023-08-30T05:24:37;16.48;;;8.70;;
76745;SDS011;65671;49.976;20.038;2023-08-30T05:27:02;15.93;;;9.70;;
76745;SDS011;65671;49.976;20.038;2023-08-30T05:29:28;18.75;;;10.30;;
76745;SDS011;65671;49.976;20.038;2023-08-30T05:31:54;17.70;;;10.15;;
76745;SDS011;65671;49.976;20.038;2023-08-30T05:34:19;16.27;;;11.00;;
76745;SDS011;65671;49.976;20.038;2023-08-30T05:36:44;17.08;;;11.15;;
76745;SDS011;65671;49.976;20.038;2023-08-30T05:39:10;18.63;;;11.98;;
76745;SDS011;65671;49.976;20.038;2023-08-30T05:41:35;17.55;;;11.77;;
76745;SDS011;65671;49.976;20.038;2023-08-30T05:44:01;18.85;;;11.68;;
76745;SDS011;65671;49.976;20.038;2023-08-30T05:46:27;20.92;;;12.77;;
76745;SDS011;65671;49.976;20.038;2023-08-30T05:48:54;22.27;;;13.90;;
76745;SDS011;65671;49.976;20.038;2023-08-30T05:51:19;27.67;;;15.02;;
76745;SDS011;65671;49.976;20.038;2023-08-30T05:53:45;24.98;;;14.55;;
76745;SDS011;65671;49.976;20.038;2023-08-30T05:56:11;23.50;;;14.90;;
76745;SDS011;65671;49.976;20.038;2023-08-30T05:58:36;24.67;;;14.32;;
76745;SDS011;65671;49.976;20.038;2023-08-30T06:01:03;26.65;;;17.08;;
76745;SDS011;65671;49.976;20.038;2023-08-30T06:03:31;29.10;;;17.23;;
76745;SDS011;65671;49.976;20.038;2023-08-30T06:05:56;36.45;;;18.63;;
76745;SDS011;65671;49.976;20.038;2023-08-30T06:08:22;28.90;;;16.42;;
76745;SDS011;65671;49.976;20.038;2023-08-30T06:10:47;30.95;;;16.55;;
76745;SDS011;65671;49.976;20.038;2023-08-30T06:13:13;33.28;;;17.52;;
76745;SDS011;65671;49.976;20.038;2023-08-30T06:15:38;34.83;;;19.55;;
76745;SDS011;65671;49.976;20.038;2023-08-30T06:18:04;38.92;;;19.35;;
76745;SDS011;65671;49.976;20.038;2023-08-30T06:20:29;41.67;;;19.67;;
76745;SDS011;65671;49.976;20.038;2023-08-30T06:22:57;40.88;;;20.27;;
76745;SDS011;65671;49.976;20.038;2023-08-30T06:25:23;44.35;;;19.90;;
76745;SDS011;65671;49.976;20.038;2023-08-30T06:27:55;37.42;;;18.58;;
76745;SDS011;65671;49.976;20.038;2023-08-30T06:30:23;35.08;;;18.60;;
76745;SDS011;65671;49.976;20.038;2023-08-30T06:32:49;39.00;;;18.98;;
76745;SDS011;65671;49.976;20.038;2023-08-30T06:35:15;39.10;;;19.02;;
76745;SDS011;65671;49.976;20.038;2023-08-30T06:37:40;41.15;;;19.67;;
76745;SDS011;65671;49.976;20.038;2023-08-30T06:40:06;36.95;;;16.98;;
76745;SDS011;65671;49.976;20.038;2023-08-30T06:42:32;37.03;;;19.45;;
76745;SDS011;65671;49.976;20.038;2023-08-30T06:44:57;40.63;;;19.38;;
76745;SDS011;65671;49.976;20.038;2023-08-30T06:47:23;41.20;;;21.27;;
76745;SDS011;65671;49.976;20.038;2023-08-30T06:49:48;36.17;;;17.20;;
76745;SDS011;65671;49.976;20.038;2023-08-30T06:52:14;31.15;;;16.80;;
76745;SDS011;65671;49.976;20.038;2023-08-30T06:54:39;36.03;;;18.00;;
76745;SDS011;65671;49.976;20.038;2023-08-30T06:57:05;36.20;;;17.63;;
76745;SDS011;65671;49.976;20.038;2023-08-30T06:59:32;37.63;;;18.42;;
76745;SDS011;65671;49.976;20.038;2023-08-30T07:01:57;40.80;;;19.38;;
76745;SDS011;65671;49.976;20.038;2023-08-30T07:04:23;41.78;;;18.38;;
76745;SDS011;65671;49.976;20.038;2023-08-30T07:06:48;39.92;;;18.73;;
76745;SDS011;65671;49.976;20.038;2023-08-30T07:09:14;40.00;;;18.40;;
76745;SDS011;65671;49.976;20.038;2023-08-30T07:11:41;39.55;;;16.77;;
76745;SDS011;65671;49.976;20.038;2023-08-30T07:14:09;36.47;;;16.58;;
76745;SDS011;65671;49.976;20.038;2023-08-30T07:16:34;41.55;;;16.92;;
76745;SDS011;65671;49.976;20.038;2023-08-30T07:19:00;34.13;;;15.30;;
76745;SDS011;65671;49.976;20.038;2023-08-30T07:21:27;35.72;;;18.67;;
76745;SDS011;65671;49.976;20.038;2023-08-30T07:23:52;33.10;;;16.27;;
76745;SDS011;65671;49.976;20.038;2023-08-30T07:26:17;32.28;;;16.40;;
76745;SDS011;65671;49.976;20.038;2023-08-30T07:28:43;35.13;;;16.80;;
76745;SDS011;65671;49.976;20.038;2023-08-30T07:31:08;32.97;;;15.32;;
76745;SDS011;65671;49.976;20.038;2023-08-30T07:33:35;35.08;;;15.27;;
76745;SDS011;65671;49.976;20.038;2023-08-30T07:36:00;34.42;;;15.63;;
76745;SDS011;65671;49.976;20.038;2023-08-30T07:38:26;28.58;;;13.55;;
76745;SDS011;65671;49.976;20.038;2023-08-30T07:40:51;31.17;;;14.50;;
76745;SDS011;65671;49.976;20.038;2023-08-30T07:43:17;31.83;;;14.50;;
76745;SDS011;65671;49.976;20.038;2023-08-30T07:45:42;29.42;;;14.75;;
76745;SDS011;65671;49.976;20.038;2023-08-30T07:48:07;30.00;;;13.93;;
76745;SDS011;65671;49.976;20.038;2023-08-30T07:50:33;28.85;;;14.38;;
76745;SDS011;65671;49.976;20.038;2023-08-30T07:52:58;26.08;;;14.32;;
76745;SDS011;65671;49.976;20.038;2023-08-30T07:55:24;28.90;;;14.52;;
76745;SDS011;65671;49.976;20.038;2023-08-30T07:57:49;32.28;;;15.93;;
76745;SDS011;65671;49.976;20.038;2023-08-30T08:00:15;32.30;;;15.73;;
76745;SDS011;65671;49.976;20.038;2023-08-30T08:02:40;42.50;;;17.92;;
76745;SDS011;65671;49.976;20.038;2023-08-30T08:05:06;36.08;;;17.33;;
76745;SDS011;65671;49.976;20.038;2023-08-30T08:07:32;42.28;;;18.50;;
76745;SDS011;65671;49.976;20.038;2023-08-30T08:09:57;39.15;;;17.52;;
76745;SDS011;65671;49.976;20.038;2023-08-30T08:12:23;29.80;;;16.85;;
76745;SDS011;65671;49.976;20.038;2023-08-30T08:14:49;36.30;;;17.27;;
76745;SDS011;65671;49.976;20.038;2023-08-30T08:17:14;30.65;;;15.80;;
76745;SDS011;65671;49.976;20.038;2023-08-30T08:19:40;28.25;;;14.90;;
76745;SDS011;65671;49.976;20.038;2023-08-30T08:22:07;24.38;;;13.15;;
76745;SDS011;65671;49.976;20.038;2023-08-30T08:24:33;26.92;;;11.02;;
76745;SDS011;65671;49.976;20.038;2023-08-30T08:26:59;22.88;;;11.57;;
76745;SDS011;65671;49.976;20.038;2023-08-30T08:29:26;19.10;;;10.18;;
76745;SDS011;65671;49.976;20.038;2023-08-30T08:31:52;22.10;;;11.35;;
76745;SDS011;65671;49.976;20.038;2023-08-30T08:34:18;21.55;;;9.80;;
76745;SDS011;65671;49.976;20.038;2023-08-30T08:36:44;22.27;;;10.63;;
76745;SDS011;65671;49.976;20.038;2023-08-30T08:39:09;25.13;;;11.40;;
76745;SDS011;65671;49.976;20.038;2023-08-30T08:41:39;18.88;;;9.68;;
76745;SDS011;65671;49.976;20.038;2023-08-30T08:44:06;21.40;;;9.63;;
76745;SDS011;65671;49.976;20.038;2023-08-30T08:46:34;16.40;;;8.52;;
76745;SDS011;65671;49.976;20.038;2023-08-30T08:49:15;15.88;;;8.00;;
76745;SDS011;65671;49.976;20.038;2023-08-30T08:51:43;13.23;;;7.82;;
76745;SDS011;65671;49.976;20.038;2023-08-30T08:54:10;14.85;;;7.53;;
76745;SDS011;65671;49.976;20.038;2023-08-30T08:56:36;11.15;;;7.38;;
76745;SDS011;65671;49.976;20.038;2023-08-30T08:59:03;13.70;;;7.90;;
76745;SDS011;65671;49.976;20.038;2023-08-30T09:01:33;11.45;;;7.28;;
76745;SDS011;65671;49.976;20.038;2023-08-30T09:04:09;13.40;;;8.15;;
76745;SDS011;65671;49.976;20.038;2023-08-30T09:06:36;12.48;;;7.68;;
76745;SDS011;65671;49.976;20.038;2023-08-30T09:09:02;13.00;;;7.57;;
76745;SDS011;65671;49.976;20.038;2023-08-30T09:11:29;11.95;;;6.28;;
76745;SDS011;65671;49.976;20.038;2023-08-30T09:13:54;11.23;;;6.85;;
76745;SDS011;65671;49.976;20.038;2023-08-30T09:16:20;12.00;;;6.60;;
76745;SDS011;65671;49.976;20.038;2023-08-30T09:18:56;11.98;;;7.30;;
76745;SDS011;65671;49.976;20.038;2023-08-30T09:21:29;8.73;;;6.00;;
76745;SDS011;65671;49.976;20.038;2023-08-30T09:23:58;13.30;;;8.70;;
76745;SDS011;65671;49.976;20.038;2023-08-30T09:26:25;9.80;;;7.07;;
76745;SDS011;65671;49.976;20.038;2023-08-30T09:28:53;9.48;;;6.07;;
76745;SDS011;65671;49.976;20.038;2023-08-30T09:31:19;12.02;;;6.93;;
76745;SDS011;65671;49.976;20.038;2023-08-30T09:33:45;12.55;;;7.57;;
76745;SDS011;65671;49.976;20.038;2023-08-30T09:36:14;10.50;;;7.32;;
76745;SDS011;65671;49.976;20.038;2023-08-30T09:38:39;10.32;;;6.70;;
76745;SDS011;65671;49.976;20.038;2023-08-30T09:41:05;12.38;;;7.32;;
76745;SDS011;65671;49.976;20.038;2023-08-30T09:43:32;14.05;;;8.30;;
76745;SDS011;65671;49.976;20.038;2023-08-30T09:46:02;11.43;;;8.32;;
76745;SDS011;65671;49.976;20.038;2023-08-30T09:48:28;9.10;;;6.60;;
76745;SDS011;65671;49.976;20.038;2023-08-30T09:50:54;10.13;;;6.53;;
76745;SDS011;65671;49.976;20.038;2023-08-30T09:53:26;12.10;;;7.60;;
76745;SDS011;65671;49.976;20.038;2023-08-30T09:55:53;12.05;;;7.57;;
76745;SDS011;65671;49.976;20.038;2023-08-30T09:58:20;11.50;;;7.85;;
76745;SDS011;65671;49.976;20.038;2023-08-30T10:00:46;12.20;;;7.68;;
76745;SDS011;65671;49.976;20.038;2023-08-30T10:03:12;13.13;;;8.02;;
76745;SDS011;65671;49.976;20.038;2023-08-30T10:05:38;11.27;;;7.90;;
76745;SDS011;65671;49.976;20.038;2023-08-30T10:08:06;14.27;;;8.02;;
76745;SDS011;65671;49.976;20.038;2023-08-30T10:10:34;12.23;;;7.95;;
76745;SDS011;65671;49.976;20.038;2023-08-30T10:13:01;11.50;;;8.40;;
76745;SDS011;65671;49.976;20.038;2023-08-30T10:15:27;13.85;;;7.90;;
76745;SDS011;65671;49.976;20.038;2023-08-30T10:17:58;15.38;;;8.88;;
76745;SDS011;65671;49.976;20.038;2023-08-30T10:20:24;14.98;;;9.15;;
76745;SDS011;65671;49.976;20.038;2023-08-30T10:22:50;14.40;;;8.93;;
76745;SDS011;65671;49.976;20.038;2023-08-30T10:25:19;13.35;;;8.75;;
76745;SDS011;65671;49.976;20.038;2023-08-30T10:27:49;12.38;;;9.32;;
76745;SDS011;65671;49.976;20.038;2023-08-30T10:30:15;13.15;;;9.02;;
76745;SDS011;65671;49.976;20.038;2023-08-30T10:32:43;16.70;;;9.30;;
76745;SDS011;65671;49.976;20.038;2023-08-30T10:35:17;11.27;;;8.00;;
76745;SDS011;65671;49.976;20.038;2023-08-30T10:38:04;13.82;;;10.15;;
76745;SDS011;65671;49.976;20.038;2023-08-30T10:40:29;13.70;;;10.13;;
76745;SDS011;65671;49.976;20.038;2023-08-30T10:43:01;12.77;;;9.68;;
76745;SDS011;65671;49.976;20.038;2023-08-30T10:45:28;13.63;;;8.65;;
76745;SDS011;65671;49.976;20.038;2023-08-30T10:47:55;15.05;;;9.23;;
76745;SDS011;65671;49.976;20.038;2023-08-30T10:50:29;12.32;;;8.55;;
76745;SDS011;65671;49.976;20.038;2023-08-30T10:52:58;12.65;;;9.27;;
76745;SDS011;65671;49.976;20.038;2023-08-30T10:55:24;12.30;;;8.52;;
76745;SDS011;65671;49.976;20.038;2023-08-30T10:58:00;17.10;;;9.48;;
76745;SDS011;65671;49.976;20.038;2023-08-30T11:00:27;15.68;;;10.07;;
76745;SDS011;65671;49.976;20.038;2023-08-30T11:02:54;13.88;;;9.38;;
76745;SDS011;65671;49.976;20.038;2023-08-30T11:05:21;14.73;;;9.10;;
76745;SDS011;65671;49.976;20.038;2023-08-30T11:07:48;13.27;;;8.80;;
76745;SDS011;65671;49.976;20.038;2023-08-30T11:10:15;12.30;;;8.32;;
76745;SDS011;65671;49.976;20.038;2023-08-30T11:12:42;14.85;;;9.90;;
76745;SDS011;65671;49.976;20.038;2023-08-30T11:15:09;11.82;;;7.63;;
76745;SDS011;65671;49.976;20.038;2023-08-30T11:17:35;12.43;;;8.25;;
76745;SDS011;65671;49.976;20.038;2023-08-30T11:20:07;12.02;;;8.35;;
76745;SDS011;65671;49.976;20.038;2023-08-30T11:22:44;12.98;;;8.75;;
76745;SDS011;65671;49.976;20.038;2023-08-30T11:25:11;10.82;;;7.85;;
76745;SDS011;65671;49.976;20.038;2023-08-30T11:27:37;11.57;;;8.18;;
76745;SDS011;65671;49.976;20.038;2023-08-30T11:30:03;13.43;;;7.72;;
76745;SDS011;65671;49.976;20.038;2023-08-30T11:32:40;12.15;;;8.25;;
76745;SDS011;65671;49.976;20.038;2023-08-30T11:35:10;10.75;;;7.75;;
76745;SDS011;65671;49.976;20.038;2023-08-30T11:37:36;14.40;;;8.82;;
76745;SDS011;65671;49.976;20.038;2023-08-30T11:40:04;11.25;;;8.27;;
76745;SDS011;65671;49.976;20.038;2023-08-30T11:42:31;13.48;;;8.63;;
76745;SDS011;65671;49.976;20.038;2023-08-30T11:44:57;13.43;;;8.07;;
76745;SDS011;65671;49.976;20.038;2023-08-30T11:47:24;12.57;;;9.02;;
76745;SDS011;65671;49.976;20.038;2023-08-30T11:49:54;11.30;;;8.00;;
76745;SDS011;65671;49.976;20.038;2023-08-30T11:52:22;13.88;;;9.35;;
76745;SDS011;65671;49.976;20.038;2023-08-30T11:54:48;13.27;;;8.45;;
76745;SDS011;65671;49.976;20.038;2023-08-30T11:57:14;13.45;;;8.23;;
76745;SDS011;65671;49.976;20.038;2023-08-30T11:59:40;14.50;;;8.38;;
76745;SDS011;65671;49.976;20.038;2023-08-30T12:02:06;11.60;;;8.52;;
76745;SDS011;65671;49.976;20.038;2023-08-30T12:04:32;15.07;;;8.88;;
76745;SDS011;65671;49.976;20.038;2023-08-30T12:07:04;12.88;;;8.70;;
76745;SDS011;65671;49.976;20.038;2023-08-30T12:09:33;13.40;;;8.85;;
76745;SDS011;65671;49.976;20.038;2023-08-30T12:12:32;14.70;;;9.88;;
76745;SDS011;65671;49.976;20.038;2023-08-30T12:14:56;14.55;;;9.10;;
76745;SDS011;65671;49.976;20.038;2023-08-30T12:19:56;13.18;;;8.45;;
76745;SDS011;65671;49.976;20.038;2023-08-30T12:22:22;14.88;;;9.18;;
76745;SDS011;65671;49.976;20.038;2023-08-30T12:24:48;13.77;;;9.00;;
76745;SDS011;65671;49.976;20.038;2023-08-30T12:27:13;16.58;;;9.25;;
76745;SDS011;65671;49.976;20.038;2023-08-30T12:29:39;14.80;;;9.95;;
76745;SDS011;65671;49.976;20.038;2023-08-30T12:32:06;16.30;;;10.05;;
76745;SDS011;65671;49.976;20.038;2023-08-30T12:34:32;19.60;;;10.98;;
76745;SDS011;65671;49.976;20.038;2023-08-30T12:36:57;18.90;;;10.93;;
76745;SDS011;65671;49.976;20.038;2023-08-30T12:39:23;19.52;;;10.43;;
76745;SDS011;65671;49.976;20.038;2023-08-30T12:41:48;19.00;;;10.63;;
76745;SDS011;65671;49.976;20.038;2023-08-30T12:44:14;20.55;;;11.05;;
76745;SDS011;65671;49.976;20.038;2023-08-30T12:46:39;24.30;;;12.38;;
76745;SDS011;65671;49.976;20.038;2023-08-30T12:49:04;22.30;;;12.23;;
76745;SDS011;65671;49.976;20.038;2023-08-30T12:51:30;24.63;;;11.50;;
76745;SDS011;65671;49.976;20.038;2023-08-30T12:53:55;18.98;;;11.73;;
76745;SDS011;65671;49.976;20.038;2023-08-30T12:56:21;20.23;;;12.20;;
76745;SDS011;65671;49.976;20.038;2023-08-30T12:58:47;20.25;;;13.50;;
76745;SDS011;65671;49.976;20.038;2023-08-30T13:01:12;22.02;;;13.25;;
76745;SDS011;65671;49.976;20.038;2023-08-30T13:03:37;20.45;;;12.25;;
76745;SDS011;65671;49.976;20.038;2023-08-30T13:06:03;22.30;;;13.10;;
76745;SDS011;65671;49.976;20.038;2023-08-30T13:08:29;27.20;;;15.02;;
76745;SDS011;65671;49.976;20.038;2023-08-30T13:10:54;30.20;;;14.30;;
76745;SDS011;65671;49.976;20.038;2023-08-30T13:13:20;28.95;;;15.30;;
76745;SDS011;65671;49.976;20.038;2023-08-30T13:15:46;27.23;;;14.40;;
76745;SDS011;65671;49.976;20.038;2023-08-30T13:18:13;27.98;;;15.15;;
76745;SDS011;65671;49.976;20.038;2023-08-30T13:20:40;25.23;;;15.10;;
76745;SDS011;65671;49.976;20.038;2023-08-30T13:23:06;20.90;;;13.25;;
76745;SDS011;65671;49.976;20.038;2023-08-30T13:25:31;22.48;;;13.50;;
76745;SDS011;65671;49.976;20.038;2023-08-30T13:27:57;23.83;;;13.60;;
76745;SDS011;65671;49.976;20.038;2023-08-30T13:30:22;23.67;;;13.60;;
76745;SDS011;65671;49.976;20.038;2023-08-30T13:32:48;24.42;;;13.80;;
76745;SDS011;65671;49.976;20.038;2023-08-30T13:35:13;23.92;;;13.73;;
76745;SDS011;65671;49.976;20.038;2023-08-30T13:37:38;21.48;;;13.80;;
76745;SDS011;65671;49.976;20.038;2023-08-30T13:40:04;23.17;;;13.00;;
76745;SDS011;65671;49.976;20.038;2023-08-30T13:42:31;20.35;;;12.63;;
76745;SDS011;65671;49.976;20.038;2023-08-30T13:44:58;25.38;;;14.35;;
76745;SDS011;65671;49.976;20.038;2023-08-30T13:47:23;21.13;;;13.80;;
76745;SDS011;65671;49.976;20.038;2023-08-30T13:49:49;24.38;;;14.40;;
76745;SDS011;65671;49.976;20.038;2023-08-30T13:52:14;24.20;;;13.95;;
76745;SDS011;65671;49.976;20.038;2023-08-30T13:54:40;20.75;;;13.07;;
76745;SDS011;65671;49.976;20.038;2023-08-30T13:57:06;25.70;;;13.73;;
76745;SDS011;65671;49.976;20.038;2023-08-30T13:59:31;23.10;;;13.23;;
76745;SDS011;65671;49.976;20.038;2023-08-30T14:01:57;22.38;;;13.35;;
76745;SDS011;65671;49.976;20.038;2023-08-30T14:04:23;20.92;;;12.98;;
76745;SDS011;65671;49.976;20.038;2023-08-30T14:06:50;24.65;;;13.63;;
76745;SDS011;65671;49.976;20.038;2023-08-30T14:09:16;19.15;;;12.75;;
76745;SDS011;65671;49.976;20.038;2023-08-30T14:11:41;18.92;;;12.60;;
76745;SDS011;65671;49.976;20.038;2023-08-30T14:14:07;19.10;;;13.80;;
76745;SDS011;65671;49.976;20.038;2023-08-30T14:16:32;19.15;;;12.55;;
76745;SDS011;65671;49.976;20.038;2023-08-30T14:18:58;17.75;;;11.30;;
76745;SDS011;65671;49.976;20.038;2023-08-30T14:21:30;17.15;;;11.55;;